createdAt,value
2018-02-13T00:00:16.483Z,0.00
2018-02-13T00:01:19.350Z,0.00
2018-02-13T00:02:25.236Z,0.00
2018-02-13T00:04:21.653Z,0.00
2018-02-13T00:05:18.558Z,0.00
2018-02-13T00:07:03.143Z,0.00
2018-02-13T00:08:03.112Z,0.00
2018-02-13T00:09:03.095Z,0.00
2018-02-13T00:10:03.137Z,0.00
2018-02-13T00:11:03.115Z,0.00
2018-02-13T00:12:03.069Z,0.00
2018-02-13T00:13:03.062Z,0.00
2018-02-13T00:14:03.055Z,0.00
2018-02-13T00:15:03.035Z,0.00
2018-02-13T00:16:03.034Z,0.00
2018-02-13T00:17:03.030Z,0.00
2018-02-13T00:18:03.006Z,0.00
2018-02-13T00:19:05.284Z,0.00
2018-02-13T00:20:02.984Z,0.00
2018-02-13T00:21:02.966Z,0.00
2018-02-13T00:22:02.960Z,0.00
2018-02-13T00:23:02.947Z,0.00
2018-02-13T00:24:02.944Z,0.00
2018-02-13T00:25:02.932Z,0.00
2018-02-13T00:26:02.921Z,0.00
2018-02-13T00:27:02.911Z,0.00
2018-02-13T00:28:02.907Z,0.00
2018-02-13T00:29:02.887Z,0.00
2018-02-13T00:30:02.877Z,0.00
2018-02-13T00:31:02.869Z,0.00
2018-02-13T00:32:02.863Z,0.00
2018-02-13T00:33:02.844Z,0.00
2018-02-13T00:34:02.834Z,0.00
2018-02-13T00:35:02.824Z,0.00
2018-02-13T00:37:24.161Z,0.00
2018-02-13T00:38:23.932Z,0.00
2018-02-13T00:41:18.099Z,0.00
2018-02-13T00:42:17.186Z,0.00
2018-02-13T00:43:17.253Z,0.00
2018-02-13T00:46:10.706Z,0.00
2018-02-13T00:47:10.619Z,0.00
2018-02-13T00:48:10.578Z,0.00
2018-02-13T00:49:10.539Z,0.00
2018-02-13T00:50:10.572Z,0.00
2018-02-13T00:51:10.532Z,0.00
2018-02-13T00:52:10.793Z,0.00
2018-02-13T00:53:10.473Z,0.00
2018-02-13T00:54:10.455Z,0.00
2018-02-13T00:55:10.453Z,0.00
2018-02-13T00:56:10.437Z,0.00
2018-02-13T00:57:10.424Z,0.00
2018-02-13T00:58:10.416Z,0.00
2018-02-13T00:59:10.399Z,0.00
2018-02-13T01:00:10.396Z,0.00
2018-02-13T01:01:10.392Z,0.00
2018-02-13T01:02:10.371Z,0.00
2018-02-13T01:03:10.356Z,0.00
2018-02-13T01:04:10.346Z,0.00
2018-02-13T01:05:10.344Z,0.00
2018-02-13T01:06:10.329Z,0.00
2018-02-13T01:07:10.318Z,0.00
2018-02-13T01:08:10.311Z,0.00
2018-02-13T01:09:10.303Z,0.00
2018-02-13T01:10:10.287Z,0.00
2018-02-13T01:11:10.272Z,0.00
2018-02-13T01:12:10.263Z,0.00
2018-02-13T01:13:10.258Z,0.00
2018-02-13T01:14:10.252Z,0.00
2018-02-13T01:15:10.228Z,0.00
2018-02-13T01:16:10.222Z,0.00
2018-02-13T01:17:10.228Z,0.00
2018-02-13T01:18:10.195Z,0.00
2018-02-13T01:19:10.183Z,0.00
2018-02-13T01:20:10.173Z,0.00
2018-02-13T01:21:10.160Z,0.00
2018-02-13T01:22:10.148Z,0.00
2018-02-13T01:23:10.139Z,0.00
2018-02-13T01:24:10.128Z,0.00
2018-02-13T01:25:10.123Z,0.00
2018-02-13T01:26:10.106Z,0.00
2018-02-13T01:27:10.094Z,0.00
2018-02-13T01:28:10.083Z,0.00
2018-02-13T01:29:10.074Z,0.00
2018-02-13T01:30:10.064Z,0.00
2018-02-13T01:31:10.075Z,0.00
2018-02-13T01:32:10.044Z,0.00
2018-02-13T01:33:10.029Z,0.00
2018-02-13T01:34:10.032Z,0.00
2018-02-13T01:35:10.012Z,0.00
2018-02-13T01:36:09.999Z,0.00
2018-02-13T01:37:09.990Z,0.00
2018-02-13T01:38:09.981Z,0.00
2018-02-13T01:39:09.964Z,0.00
2018-02-13T01:40:09.972Z,0.00
2018-02-13T01:41:09.941Z,0.00
2018-02-13T01:42:09.941Z,0.00
2018-02-13T01:43:09.940Z,0.00
2018-02-13T01:44:09.934Z,0.00
2018-02-13T01:45:09.893Z,0.00
2018-02-13T01:46:09.906Z,0.00
2018-02-13T01:47:09.872Z,0.00
2018-02-13T01:48:09.860Z,0.00
2018-02-13T01:49:18.695Z,0.00
2018-02-13T01:51:03.487Z,0.00
2018-02-13T01:52:03.233Z,0.00
2018-02-13T01:53:03.256Z,0.00
2018-02-13T01:54:03.365Z,0.00
2018-02-13T01:55:03.212Z,0.00
2018-02-13T01:56:03.188Z,0.00
2018-02-13T01:57:03.173Z,0.00
2018-02-13T01:58:03.213Z,0.00
2018-02-13T01:59:03.158Z,0.00
2018-02-13T02:00:03.153Z,0.00
2018-02-13T02:01:03.131Z,0.00
2018-02-13T02:02:03.124Z,0.00
2018-02-13T02:03:03.123Z,0.00
2018-02-13T02:04:03.102Z,0.00
2018-02-13T02:05:03.090Z,0.00
2018-02-13T02:06:03.074Z,0.00
2018-02-13T02:07:03.068Z,0.00
2018-02-13T02:08:03.051Z,0.00
2018-02-13T02:09:03.040Z,0.00
2018-02-13T02:10:03.037Z,0.00
2018-02-13T02:11:03.023Z,0.00
2018-02-13T02:12:03.008Z,0.00
2018-02-13T02:13:03.004Z,0.00
2018-02-13T02:14:02.980Z,0.00
2018-02-13T02:15:02.971Z,0.00
2018-02-13T02:16:02.957Z,0.00
2018-02-13T02:17:02.949Z,0.00
2018-02-13T02:18:02.935Z,0.00
2018-02-13T02:19:02.923Z,0.00
2018-02-13T02:20:02.917Z,0.00
2018-02-13T02:21:02.905Z,0.00
2018-02-13T02:22:02.893Z,0.00
2018-02-13T02:23:02.877Z,0.00
2018-02-13T02:24:02.869Z,0.00
2018-02-13T02:25:02.868Z,0.00
2018-02-13T02:26:02.865Z,0.00
2018-02-13T02:27:02.831Z,0.00
2018-02-13T02:28:02.825Z,0.00
2018-02-13T02:29:02.812Z,0.00
2018-02-13T02:30:02.806Z,0.00
2018-02-13T02:31:02.789Z,0.00
2018-02-13T02:32:02.775Z,0.00
2018-02-13T02:33:02.763Z,0.00
2018-02-13T02:34:02.762Z,0.00
2018-02-13T02:35:02.794Z,0.00
2018-02-13T02:36:02.729Z,0.00
2018-02-13T02:37:02.716Z,0.00
2018-02-13T02:38:02.704Z,0.00
2018-02-13T02:39:02.695Z,0.00
2018-02-13T02:40:02.692Z,0.00
2018-02-13T02:41:02.673Z,0.00
2018-02-13T02:42:02.657Z,0.00
2018-02-13T02:43:02.653Z,0.00
2018-02-13T02:44:02.647Z,0.00
2018-02-13T02:45:02.630Z,0.00
2018-02-13T02:46:02.615Z,0.00
2018-02-13T02:47:02.599Z,0.00
2018-02-13T02:48:02.587Z,0.00
2018-02-13T02:49:02.576Z,0.00
2018-02-13T02:50:02.567Z,0.00
2018-02-13T02:51:02.560Z,0.00
2018-02-13T02:52:02.546Z,0.00
2018-02-13T02:53:02.531Z,0.00
2018-02-13T02:54:02.523Z,0.00
2018-02-13T02:55:02.510Z,0.00
2018-02-13T02:56:02.499Z,0.00
2018-02-13T02:57:02.484Z,0.00
2018-02-13T02:58:02.469Z,0.00
2018-02-13T02:59:02.458Z,0.00
2018-02-13T03:00:02.450Z,0.00
2018-02-13T03:01:02.504Z,0.00
2018-02-13T03:02:02.426Z,0.00
2018-02-13T03:04:23.491Z,0.00
2018-02-13T03:24:02.429Z,0.00
2018-02-13T03:25:01.967Z,0.00
2018-02-13T03:26:02.276Z,0.00
2018-02-13T03:27:00.395Z,0.00
2018-02-13T03:28:01.584Z,0.00
2018-02-13T03:29:00.174Z,0.00
2018-02-13T03:29:59.945Z,0.00
2018-02-13T03:31:00.030Z,0.00
2018-02-13T03:31:59.990Z,0.00
2018-02-13T03:32:59.979Z,0.00
2018-02-13T03:34:10.102Z,0.00
2018-02-13T03:35:53.758Z,0.00
2018-02-13T03:36:53.728Z,0.00
2018-02-13T03:39:16.625Z,0.00
2018-02-13T03:42:08.955Z,0.00
2018-02-13T03:43:08.958Z,0.00
2018-02-13T03:44:09.047Z,0.00
2018-02-13T03:45:11.154Z,0.00
2018-02-13T03:46:08.870Z,0.00
2018-02-13T03:47:08.811Z,0.00
2018-02-13T03:48:08.802Z,0.00
2018-02-13T03:49:08.799Z,0.00
2018-02-13T03:50:08.783Z,0.00
2018-02-13T03:51:08.761Z,0.00
2018-02-13T03:52:08.747Z,0.00
2018-02-13T03:53:08.735Z,0.00
2018-02-13T03:54:08.729Z,0.00
2018-02-13T03:55:08.709Z,0.00
2018-02-13T03:56:08.757Z,0.00
2018-02-13T03:57:08.696Z,0.00
2018-02-13T03:58:08.675Z,0.00
2018-02-13T03:59:08.664Z,0.00
2018-02-13T04:00:08.656Z,0.00
2018-02-13T04:01:08.652Z,0.00
2018-02-13T04:02:08.647Z,0.00
2018-02-13T04:03:08.621Z,0.00
2018-02-13T04:04:08.605Z,0.00
2018-02-13T04:05:08.597Z,0.00
2018-02-13T04:06:08.581Z,0.00
2018-02-13T04:07:08.574Z,0.00
2018-02-13T04:08:08.624Z,0.00
2018-02-13T04:09:08.551Z,0.00
2018-02-13T04:10:08.543Z,0.00
2018-02-13T04:11:08.532Z,0.00
2018-02-13T04:12:08.519Z,0.00
2018-02-13T04:13:08.505Z,0.00
2018-02-13T04:14:08.492Z,0.00
2018-02-13T04:15:08.474Z,0.00
2018-02-13T04:16:08.753Z,0.00
2018-02-13T04:17:08.458Z,0.00
2018-02-13T04:18:08.442Z,0.00
2018-02-13T04:19:08.459Z,0.00
2018-02-13T04:20:08.419Z,0.00
2018-02-13T04:21:08.429Z,0.00
2018-02-13T04:22:08.395Z,0.00
2018-02-13T04:23:08.392Z,0.00
2018-02-13T04:24:08.413Z,0.00
2018-02-13T04:25:08.363Z,0.00
2018-02-13T04:26:08.347Z,0.00
2018-02-13T04:27:08.377Z,0.00
2018-02-13T04:28:08.329Z,0.00
2018-02-13T04:29:08.335Z,0.00
2018-02-13T04:30:08.306Z,0.00
2018-02-13T04:31:08.288Z,0.00
2018-02-13T04:32:08.287Z,0.00
2018-02-13T04:33:08.273Z,0.00
2018-02-13T04:34:08.252Z,0.00
2018-02-13T04:35:08.242Z,0.00
2018-02-13T04:36:08.229Z,0.00
2018-02-13T04:37:08.220Z,0.00
2018-02-13T04:38:08.208Z,0.00
2018-02-13T04:39:08.201Z,0.00
2018-02-13T04:40:08.183Z,0.00
2018-02-13T04:41:08.179Z,0.00
2018-02-13T04:42:08.240Z,0.00
2018-02-13T04:43:08.170Z,0.00
2018-02-13T04:44:08.136Z,0.00
2018-02-13T04:45:08.131Z,0.00
2018-02-13T04:46:08.110Z,0.00
2018-02-13T04:47:08.100Z,0.00
2018-02-13T04:48:08.089Z,0.00
2018-02-13T04:49:08.073Z,0.00
2018-02-13T04:50:08.060Z,0.00
2018-02-13T04:51:08.098Z,0.00
2018-02-13T04:52:08.048Z,0.00
2018-02-13T04:53:08.070Z,0.00
2018-02-13T04:54:08.018Z,0.00
2018-02-13T04:55:08.004Z,0.00
2018-02-13T04:56:07.996Z,0.00
2018-02-13T04:57:07.981Z,0.00
2018-02-13T04:58:07.969Z,0.00
2018-02-13T04:59:07.958Z,0.00
2018-02-13T05:00:07.952Z,0.00
2018-02-13T05:01:07.946Z,0.00
2018-02-13T05:02:07.982Z,0.00
2018-02-13T05:03:07.906Z,0.00
2018-02-13T05:04:07.896Z,0.00
2018-02-13T05:05:07.883Z,0.00
2018-02-13T05:06:07.887Z,0.00
2018-02-13T05:07:07.912Z,0.00
2018-02-13T05:08:07.882Z,0.00
2018-02-13T05:09:07.836Z,0.00
2018-02-13T05:10:07.828Z,0.00
2018-02-13T05:11:07.824Z,0.00
2018-02-13T05:12:07.803Z,0.00
2018-02-13T05:13:07.798Z,0.00
2018-02-13T05:14:16.800Z,0.00
2018-02-13T05:16:11.646Z,0.00
2018-02-13T05:17:01.320Z,0.00
2018-02-13T05:18:01.242Z,0.00
2018-02-13T05:19:01.317Z,0.00
2018-02-13T05:20:01.126Z,0.00
2018-02-13T05:21:01.086Z,0.00
2018-02-13T05:22:01.078Z,0.00
2018-02-13T05:23:01.112Z,0.00
2018-02-13T05:24:01.047Z,0.00
2018-02-13T05:27:05.697Z,0.00
2018-02-13T05:29:26.820Z,0.00
2018-02-13T05:32:19.604Z,0.00
2018-02-13T05:34:33.632Z,0.00
2018-02-13T05:35:30.898Z,0.00
2018-02-13T05:36:30.835Z,0.00
2018-02-13T05:37:30.805Z,0.00
2018-02-13T05:38:30.786Z,0.00
2018-02-13T05:39:31.048Z,0.00
2018-02-13T05:40:30.749Z,0.00
2018-02-13T05:41:30.736Z,0.00
2018-02-13T05:42:30.716Z,0.00
2018-02-13T05:43:30.704Z,0.00
2018-02-13T05:44:30.691Z,0.00
2018-02-13T05:45:30.683Z,0.00
2018-02-13T05:46:30.671Z,0.00
2018-02-13T05:47:30.665Z,0.00
2018-02-13T05:48:30.647Z,0.00
2018-02-13T05:49:30.638Z,0.00
2018-02-13T05:50:30.624Z,0.00
2018-02-13T05:51:30.622Z,0.00
2018-02-13T05:52:30.626Z,0.00
2018-02-13T05:53:30.598Z,0.00
2018-02-13T05:54:30.580Z,0.00
2018-02-13T05:57:25.804Z,0.00
2018-02-13T05:58:24.308Z,0.00
2018-02-13T05:59:24.124Z,0.00
2018-02-13T06:00:24.224Z,0.00
2018-02-13T06:01:26.671Z,0.00
2018-02-13T06:02:27.162Z,0.00
2018-02-13T06:03:23.863Z,0.00
2018-02-13T06:04:23.848Z,0.00
2018-02-13T06:05:23.846Z,0.00
2018-02-13T06:06:23.863Z,0.00
2018-02-13T06:07:23.837Z,0.00
2018-02-13T06:08:23.807Z,0.00
2018-02-13T06:09:23.795Z,0.00
2018-02-13T06:10:23.786Z,0.00
2018-02-13T06:11:23.790Z,0.00
2018-02-13T06:12:23.817Z,0.00
2018-02-13T06:13:23.747Z,0.00
2018-02-13T06:14:23.740Z,0.00
2018-02-13T06:15:23.722Z,0.00
2018-02-13T06:16:23.715Z,4.00
2018-02-13T06:17:23.721Z,4.00
2018-02-13T06:18:23.691Z,0.00
2018-02-13T06:19:23.676Z,0.00
2018-02-13T06:20:23.666Z,4.00
2018-02-13T06:21:23.653Z,4.00
2018-02-13T06:22:23.645Z,4.00
2018-02-13T06:23:23.649Z,4.00
2018-02-13T06:24:23.616Z,4.00
2018-02-13T06:25:23.606Z,4.00
2018-02-13T06:26:23.593Z,4.00
2018-02-13T06:27:23.587Z,8.00
2018-02-13T06:28:23.577Z,8.00
2018-02-13T06:29:32.528Z,8.00
2018-02-13T06:31:26.179Z,16.00
2018-02-13T06:32:25.914Z,16.00
2018-02-13T06:34:10.329Z,20.00
2018-02-13T06:35:19.453Z,20.00
2018-02-13T06:37:13.051Z,24.00
2018-02-13T06:38:12.744Z,24.00
2018-02-13T06:39:57.432Z,28.00
2018-02-13T06:40:57.028Z,32.00
2018-02-13T06:41:56.990Z,36.00
2018-02-13T06:42:56.983Z,40.00
2018-02-13T06:43:57.002Z,48.00
2018-02-13T06:44:57.195Z,52.00
2018-02-13T06:45:57.305Z,56.00
2018-02-13T06:46:56.936Z,60.00
2018-02-13T06:47:56.921Z,64.00
2018-02-13T06:48:56.909Z,68.00
2018-02-13T06:49:56.896Z,76.00
2018-02-13T06:50:56.917Z,80.00
2018-02-13T06:51:56.878Z,84.00
2018-02-13T06:52:56.866Z,92.00
2018-02-13T06:53:56.845Z,96.00
2018-02-13T06:54:56.843Z,104.00
2018-02-13T06:55:56.829Z,112.00
2018-02-13T06:56:56.815Z,120.00
2018-02-13T06:57:56.812Z,132.00
2018-02-13T06:58:56.793Z,140.00
2018-02-13T06:59:56.779Z,156.00
2018-02-13T07:00:56.767Z,172.00
2018-02-13T07:01:56.767Z,184.00
2018-02-13T07:02:56.745Z,200.00
2018-02-13T07:03:56.735Z,220.00
2018-02-13T07:04:56.725Z,240.00
2018-02-13T07:05:56.714Z,256.00
2018-02-13T07:06:56.703Z,276.00
2018-02-13T07:07:56.685Z,296.00
2018-02-13T07:08:56.675Z,316.00
2018-02-13T07:09:56.669Z,332.00
2018-02-13T07:10:56.665Z,352.00
2018-02-13T07:11:56.640Z,376.00
2018-02-13T07:12:56.636Z,400.00
2018-02-13T07:13:56.616Z,420.00
2018-02-13T07:14:56.609Z,444.00
2018-02-13T07:15:56.594Z,460.00
2018-02-13T07:16:56.584Z,484.00
2018-02-13T07:17:56.578Z,508.00
2018-02-13T07:18:56.595Z,536.00
2018-02-13T07:19:56.549Z,568.00
2018-02-13T07:20:56.538Z,588.00
2018-02-13T07:21:56.529Z,612.00
2018-02-13T07:22:56.522Z,636.00
2018-02-13T07:23:56.541Z,656.00
2018-02-13T07:24:56.518Z,696.00
2018-02-13T07:25:56.481Z,720.00
2018-02-13T07:26:56.485Z,760.00
2018-02-13T07:27:56.461Z,796.00
2018-02-13T07:28:56.462Z,804.00
2018-02-13T07:29:56.437Z,804.00
2018-02-13T07:30:56.427Z,812.00
2018-02-13T07:31:56.413Z,812.00
2018-02-13T07:32:56.407Z,808.00
2018-02-13T07:33:56.391Z,816.00
2018-02-13T07:34:56.383Z,824.00
2018-02-13T07:35:56.367Z,848.00
2018-02-13T07:36:56.356Z,876.00
2018-02-13T07:37:56.343Z,896.00
2018-02-13T07:38:57.681Z,928.00
2018-02-13T07:39:56.333Z,944.00
2018-02-13T07:40:57.595Z,968.00
2018-02-13T07:41:58.393Z,952.00
2018-02-13T07:42:56.324Z,948.00
2018-02-13T07:43:56.276Z,964.00
2018-02-13T07:44:56.285Z,976.00
2018-02-13T07:45:56.272Z,992.00
2018-02-13T07:46:56.252Z,996.00
2018-02-13T07:47:57.435Z,996.00
2018-02-13T07:48:56.225Z,1016.00
2018-02-13T07:49:56.211Z,1032.00
2018-02-13T07:50:56.520Z,1028.00
2018-02-13T07:51:56.988Z,996.00
2018-02-13T07:52:56.194Z,960.00
2018-02-13T07:54:05.894Z,932.00
2018-02-13T07:55:51.618Z,892.00
2018-02-13T07:57:00.767Z,884.00
2018-02-13T07:58:47.380Z,876.00
2018-02-13T07:59:44.596Z,872.00
2018-02-13T08:00:44.593Z,868.00
2018-02-13T08:01:44.573Z,868.00
2018-02-13T08:02:44.585Z,860.00
2018-02-13T08:03:50.849Z,864.00
2018-02-13T08:04:44.734Z,876.00
2018-02-13T08:05:44.523Z,908.00
2018-02-13T08:06:45.936Z,940.00
2018-02-13T08:07:45.136Z,984.00
2018-02-13T08:08:44.483Z,1020.00
2018-02-13T08:09:44.473Z,1064.00
2018-02-13T08:10:44.466Z,1084.00
2018-02-13T08:11:44.813Z,1100.00
2018-02-13T08:12:54.011Z,1116.00
2018-02-13T08:14:39.068Z,1164.00
2018-02-13T08:17:42.808Z,1220.00
2018-02-13T08:18:41.031Z,1252.00
2018-02-13T08:20:35.461Z,1344.00
2018-02-13T08:22:57.870Z,1360.00
2018-02-13T08:25:48.955Z,1452.00
2018-02-13T08:26:40.319Z,1496.00
2018-02-13T08:27:48.231Z,1544.00
2018-02-13T08:30:33.652Z,1580.00
2018-02-13T08:31:33.713Z,1580.00
2018-02-13T08:32:33.860Z,1576.00
2018-02-13T08:33:34.197Z,1564.00
2018-02-13T08:34:33.749Z,1556.00
2018-02-13T08:35:33.574Z,1548.00
2018-02-13T08:36:34.309Z,1544.00
2018-02-13T08:37:33.541Z,1536.00
2018-02-13T08:38:34.207Z,1528.00
2018-02-13T08:39:33.522Z,1520.00
2018-02-13T08:40:33.846Z,1500.00
2018-02-13T08:41:33.517Z,1468.00
2018-02-13T08:42:33.499Z,1432.00
2018-02-13T08:43:34.712Z,1368.00
2018-02-13T08:44:34.264Z,1316.00
2018-02-13T08:45:33.454Z,1336.00
2018-02-13T08:46:33.449Z,1356.00
2018-02-13T08:47:33.568Z,1348.00
2018-02-13T08:48:36.185Z,1336.00
2018-02-13T08:49:33.417Z,1316.00
2018-02-13T08:50:33.427Z,1296.00
2018-02-13T08:51:34.117Z,1268.00
2018-02-13T08:52:33.383Z,1248.00
2018-02-13T08:53:33.374Z,1232.00
2018-02-13T08:54:33.371Z,1220.00
2018-02-13T08:55:33.350Z,1204.00
2018-02-13T08:56:33.341Z,1196.00
2018-02-13T08:57:33.345Z,1192.00
2018-02-13T08:58:33.333Z,1164.00
2018-02-13T08:59:33.317Z,1156.00
2018-02-13T09:00:33.373Z,1144.00
2018-02-13T09:01:33.915Z,1140.00
2018-02-13T09:02:33.274Z,1136.00
2018-02-13T09:03:33.267Z,1140.00
2018-02-13T09:04:33.255Z,1136.00
2018-02-13T09:05:33.243Z,1140.00
2018-02-13T09:06:33.237Z,1140.00
2018-02-13T09:07:33.223Z,1136.00
2018-02-13T09:08:33.212Z,1136.00
2018-02-13T09:09:33.320Z,1128.00
2018-02-13T09:10:33.200Z,1128.00
2018-02-13T09:11:34.945Z,1128.00
2018-02-13T09:12:33.173Z,1132.00
2018-02-13T09:15:00.632Z,1132.00
2018-02-13T09:15:58.053Z,1128.00
2018-02-13T09:16:58.048Z,1124.00
2018-02-13T09:17:58.034Z,1128.00
2018-02-13T09:18:58.054Z,1124.00
2018-02-13T09:19:58.242Z,1124.00
2018-02-13T09:20:58.008Z,1120.00
2018-02-13T09:21:57.989Z,1116.00
2018-02-13T09:22:57.978Z,1112.00
2018-02-13T09:25:51.541Z,1116.00
2018-02-13T09:26:51.401Z,1112.00
2018-02-13T09:28:00.147Z,1108.00
2018-02-13T09:29:55.122Z,1108.00
2018-02-13T09:30:53.730Z,1108.00
2018-02-13T09:32:47.420Z,1104.00
2018-02-13T09:33:45.549Z,1100.00
2018-02-13T09:35:31.718Z,1100.00
2018-02-13T09:36:41.383Z,1096.00
2018-02-13T09:38:25.081Z,1096.00
2018-02-13T09:39:24.804Z,1092.00
2018-02-13T09:40:24.775Z,1092.00
2018-02-13T09:41:24.915Z,1092.00
2018-02-13T09:42:24.798Z,1092.00
2018-02-13T09:43:24.869Z,1088.00
2018-02-13T09:44:24.733Z,1088.00
2018-02-13T09:45:24.747Z,1088.00
2018-02-13T09:46:24.716Z,1096.00
2018-02-13T09:47:24.716Z,1084.00
2018-02-13T09:48:24.696Z,1084.00
2018-02-13T09:49:24.690Z,1084.00
2018-02-13T09:50:24.675Z,1080.00
2018-02-13T09:51:24.672Z,1080.00
2018-02-13T09:52:24.651Z,1080.00
2018-02-13T09:53:24.648Z,1076.00
2018-02-13T09:54:24.634Z,1080.00
2018-02-13T09:55:24.624Z,1076.00
2018-02-13T09:56:24.619Z,1076.00
2018-02-13T09:57:24.641Z,1076.00
2018-02-13T09:58:24.595Z,1076.00
2018-02-13T09:59:24.591Z,1076.00
2018-02-13T10:00:24.570Z,1076.00
2018-02-13T10:01:24.573Z,1076.00
2018-02-13T10:02:24.554Z,1072.00
2018-02-13T10:03:24.547Z,1068.00
2018-02-13T10:04:24.576Z,1068.00
2018-02-13T10:05:24.522Z,1068.00
2018-02-13T10:06:24.512Z,1064.00
2018-02-13T10:07:24.520Z,1068.00
2018-02-13T10:08:24.522Z,1072.00
2018-02-13T10:09:24.488Z,1064.00
2018-02-13T10:10:24.471Z,1064.00
2018-02-13T10:11:24.464Z,1064.00
2018-02-13T10:12:24.449Z,1060.00
2018-02-13T10:13:24.442Z,1068.00
2018-02-13T10:14:24.441Z,1064.00
2018-02-13T10:15:24.426Z,1064.00
2018-02-13T10:16:24.410Z,1060.00
2018-02-13T10:17:24.403Z,1060.00
2018-02-13T10:18:24.392Z,1064.00
2018-02-13T10:19:33.151Z,1060.00
2018-02-13T10:21:28.333Z,1060.00
2018-02-13T10:22:26.209Z,1060.00
2018-02-13T10:24:21.015Z,1060.00
2018-02-13T10:25:10.654Z,1060.00
2018-02-13T10:26:10.671Z,1056.00
2018-02-13T10:27:10.635Z,1060.00
2018-02-13T10:28:10.680Z,1064.00
2018-02-13T10:29:10.869Z,1068.00
2018-02-13T10:30:10.606Z,1076.00
2018-02-13T10:31:10.591Z,1076.00
2018-02-13T10:32:10.585Z,1076.00
2018-02-13T10:33:10.606Z,1076.00
2018-02-13T10:34:10.561Z,1084.00
2018-02-13T10:35:10.557Z,1088.00
2018-02-13T10:36:10.546Z,1096.00
2018-02-13T10:37:10.536Z,1104.00
2018-02-13T10:38:10.522Z,1112.00
2018-02-13T10:39:10.521Z,1116.00
2018-02-13T10:40:10.512Z,1112.00
2018-02-13T10:41:10.495Z,1112.00
2018-02-13T10:42:10.494Z,1112.00
2018-02-13T10:43:10.475Z,1116.00
2018-02-13T10:44:10.467Z,1108.00
2018-02-13T10:45:10.463Z,1100.00
2018-02-13T10:46:10.444Z,1104.00
2018-02-13T10:47:10.435Z,1104.00
2018-02-13T10:48:10.430Z,1112.00
2018-02-13T10:49:10.420Z,1092.00
2018-02-13T10:50:10.409Z,1088.00
2018-02-13T10:51:10.399Z,1088.00
2018-02-13T10:52:10.390Z,1084.00
2018-02-13T10:53:10.383Z,1084.00
2018-02-13T10:54:10.373Z,1096.00
2018-02-13T10:55:10.362Z,1088.00
2018-02-13T10:56:10.391Z,1080.00
2018-02-13T10:57:10.347Z,1076.00
2018-02-13T10:58:10.335Z,1068.00
2018-02-13T10:59:10.328Z,1060.00
2018-02-13T11:00:10.316Z,1056.00
2018-02-13T11:01:10.312Z,1056.00
2018-02-13T11:02:10.297Z,1056.00
2018-02-13T11:03:10.288Z,1052.00
2018-02-13T11:04:10.280Z,1056.00
2018-02-13T11:05:10.272Z,1052.00
2018-02-13T11:06:10.266Z,1064.00
2018-02-13T11:07:10.252Z,1064.00
2018-02-13T11:08:10.245Z,1068.00
2018-02-13T11:09:10.231Z,1056.00
2018-02-13T11:10:10.224Z,1060.00
2018-02-13T11:11:10.218Z,1060.00
2018-02-13T11:12:10.219Z,1060.00
2018-02-13T11:13:10.196Z,1060.00
2018-02-13T11:14:10.187Z,1056.00
2018-02-13T11:15:10.178Z,1052.00
2018-02-13T11:16:10.170Z,1048.00
2018-02-13T11:17:10.164Z,1052.00
2018-02-13T11:18:10.150Z,1048.00
2018-02-13T11:19:10.143Z,1052.00
2018-02-13T11:20:10.135Z,1052.00
2018-02-13T11:21:10.129Z,1052.00
2018-02-13T11:22:10.128Z,1048.00
2018-02-13T11:23:10.105Z,1052.00
2018-02-13T11:24:10.099Z,1048.00
2018-02-13T11:25:10.092Z,1044.00
2018-02-13T11:26:10.080Z,1048.00
2018-02-13T11:27:10.067Z,1048.00
2018-02-13T11:28:10.069Z,1048.00
2018-02-13T11:29:10.072Z,1048.00
2018-02-13T11:30:10.050Z,1052.00
2018-02-13T11:32:31.069Z,1048.00
2018-02-13T11:33:31.038Z,1044.00
2018-02-13T11:34:31.038Z,1044.00
2018-02-13T11:35:31.045Z,1044.00
2018-02-13T11:36:31.230Z,1044.00
2018-02-13T11:37:31.021Z,1040.00
2018-02-13T11:38:30.996Z,1048.00
2018-02-13T11:39:30.983Z,1048.00
2018-02-13T11:40:30.972Z,1044.00
2018-02-13T11:41:30.965Z,1044.00
2018-02-13T11:42:30.956Z,1048.00
2018-02-13T11:43:30.950Z,1048.00
2018-02-13T11:44:30.939Z,1044.00
2018-02-13T11:45:30.953Z,1044.00
2018-02-13T11:46:30.922Z,1040.00
2018-02-13T11:47:30.916Z,1040.00
2018-02-13T11:48:30.925Z,1040.00
2018-02-13T11:49:30.894Z,1032.00
2018-02-13T11:50:30.920Z,1044.00
2018-02-13T11:51:30.876Z,1040.00
2018-02-13T11:52:30.869Z,1040.00
2018-02-13T11:53:30.860Z,1040.00
2018-02-13T11:54:30.853Z,1036.00
2018-02-13T11:55:30.841Z,1036.00
2018-02-13T11:56:30.835Z,1040.00
2018-02-13T11:57:30.827Z,1040.00
2018-02-13T11:58:30.836Z,1040.00
2018-02-13T11:59:30.820Z,1044.00
2018-02-13T12:00:30.801Z,1044.00
2018-02-13T12:01:30.790Z,1040.00
2018-02-13T12:02:30.784Z,1040.00
2018-02-13T12:03:30.776Z,1036.00
2018-02-13T12:04:31.003Z,1036.00
2018-02-13T12:05:30.765Z,1040.00
2018-02-13T12:06:30.746Z,1036.00
2018-02-13T12:07:30.739Z,1036.00
2018-02-13T12:08:30.732Z,1040.00
2018-02-13T12:09:30.722Z,1036.00
2018-02-13T12:10:30.716Z,1040.00
2018-02-13T12:11:30.733Z,1048.00
2018-02-13T12:12:30.698Z,1040.00
2018-02-13T12:13:30.694Z,1036.00
2018-02-13T12:14:30.679Z,1036.00
2018-02-13T12:15:30.672Z,1036.00
2018-02-13T12:16:30.664Z,1036.00
2018-02-13T12:17:30.661Z,1032.00
2018-02-13T12:18:30.720Z,1048.00
2018-02-13T12:19:30.637Z,1032.00
2018-02-13T12:20:30.684Z,1032.00
2018-02-13T12:21:30.619Z,1032.00
2018-02-13T12:22:30.645Z,1036.00
2018-02-13T12:23:30.607Z,1040.00
2018-02-13T12:24:39.061Z,1040.00
2018-02-13T12:26:33.411Z,1040.00
2018-02-13T12:27:33.175Z,1044.00
2018-02-13T12:29:18.912Z,1044.00
2018-02-13T12:30:20.465Z,1044.00
2018-02-13T12:31:18.778Z,1044.00
2018-02-13T12:33:51.329Z,1048.00
2018-02-13T12:34:50.645Z,1040.00
2018-02-13T12:36:36.454Z,1040.00
2018-02-13T12:37:36.498Z,1044.00
2018-02-13T12:38:36.204Z,1052.00
2018-02-13T12:39:36.469Z,1040.00
2018-02-13T12:40:36.021Z,1040.00
2018-02-13T12:41:35.998Z,1036.00
2018-02-13T12:42:35.992Z,1040.00
2018-02-13T12:43:45.271Z,1032.00
2018-02-13T12:45:39.753Z,1040.00
2018-02-13T12:46:39.529Z,1044.00
2018-02-13T12:48:23.963Z,1044.00
2018-02-13T12:49:23.405Z,1040.00
2018-02-13T12:50:23.221Z,1040.00
2018-02-13T12:51:23.055Z,1040.00
2018-02-13T12:52:22.937Z,1040.00
2018-02-13T12:53:22.909Z,1040.00
2018-02-13T12:54:22.956Z,1052.00
2018-02-13T12:55:22.876Z,1044.00
2018-02-13T12:56:22.871Z,1048.00
2018-02-13T12:57:22.850Z,1044.00
2018-02-13T12:58:22.849Z,1048.00
2018-02-13T12:59:22.839Z,1044.00
2018-02-13T13:00:22.886Z,1052.00
2018-02-13T13:01:22.829Z,1052.00
2018-02-13T13:02:22.817Z,1052.00
2018-02-13T13:03:22.805Z,1064.00
2018-02-13T13:04:22.799Z,1052.00
2018-02-13T13:05:22.805Z,1056.00
2018-02-13T13:06:22.790Z,1056.00
2018-02-13T13:07:22.783Z,1060.00
2018-02-13T13:08:22.765Z,1056.00
2018-02-13T13:09:22.757Z,1060.00
2018-02-13T13:10:22.748Z,1060.00
2018-02-13T13:11:22.734Z,1064.00
2018-02-13T13:12:22.730Z,1056.00
2018-02-13T13:13:22.723Z,1060.00
2018-02-13T13:14:22.712Z,1060.00
2018-02-13T13:15:22.701Z,1060.00
2018-02-13T13:16:22.695Z,1056.00
2018-02-13T13:17:22.725Z,1060.00
2018-02-13T13:18:22.687Z,1056.00
2018-02-13T13:19:22.670Z,1060.00
2018-02-13T13:20:22.693Z,1060.00
2018-02-13T13:21:22.659Z,1060.00
2018-02-13T13:22:22.646Z,1056.00
2018-02-13T13:23:22.641Z,1056.00
2018-02-13T13:24:22.662Z,1056.00
2018-02-13T13:25:22.646Z,1060.00
2018-02-13T13:26:22.636Z,1060.00
2018-02-13T13:27:22.650Z,1060.00
2018-02-13T13:28:22.642Z,1060.00
2018-02-13T13:29:22.645Z,1060.00
2018-02-13T13:30:22.571Z,1060.00
2018-02-13T13:31:22.622Z,1060.00
2018-02-13T13:32:22.603Z,1064.00
2018-02-13T13:33:22.580Z,1064.00
2018-02-13T13:34:22.545Z,1060.00
2018-02-13T13:35:22.545Z,1068.00
2018-02-13T13:36:22.564Z,1064.00
2018-02-13T13:37:22.540Z,1060.00
2018-02-13T13:38:22.520Z,1064.00
2018-02-13T13:39:22.508Z,1072.00
2018-02-13T13:40:22.512Z,1064.00
2018-02-13T13:41:22.518Z,1060.00
2018-02-13T13:42:22.535Z,1064.00
2018-02-13T13:43:22.505Z,1060.00
2018-02-13T13:44:22.466Z,1060.00
2018-02-13T13:45:22.576Z,1060.00
2018-02-13T13:46:22.497Z,1052.00
2018-02-13T13:47:22.502Z,1056.00
2018-02-13T13:48:22.460Z,1064.00
2018-02-13T13:49:22.512Z,1052.00
2018-02-13T13:50:22.476Z,1060.00
2018-02-13T13:51:22.422Z,1060.00